createdAt,value
2019-03-27T00:02:09.861Z,91.00
2019-03-27T00:04:40.489Z,91.10
2019-03-27T00:07:08.911Z,91.20
2019-03-27T00:09:37.341Z,91.20
2019-03-27T00:12:05.793Z,91.10
2019-03-27T00:14:34.230Z,91.10
2019-03-27T00:17:02.735Z,91.10
2019-03-27T00:19:31.178Z,91.20
2019-03-27T00:21:59.627Z,91.30
2019-03-27T00:24:28.053Z,91.40
2019-03-27T00:26:56.554Z,91.40
2019-03-27T00:29:24.974Z,91.60
2019-03-27T00:31:53.439Z,91.70
2019-03-27T00:34:21.871Z,91.60
2019-03-27T00:36:50.301Z,91.70
2019-03-27T00:39:18.755Z,91.70
2019-03-27T00:41:49.969Z,91.80
2019-03-27T00:44:18.442Z,91.90
2019-03-27T00:46:46.938Z,91.80
2019-03-27T00:49:15.419Z,91.90
2019-03-27T00:51:43.907Z,91.80
2019-03-27T00:54:15.258Z,91.80
2019-03-27T00:56:43.710Z,91.80
2019-03-27T00:59:12.157Z,91.90
2019-03-27T01:01:40.623Z,92.00
2019-03-27T01:04:09.061Z,91.90
2019-03-27T01:06:37.507Z,92.00
2019-03-27T01:09:06.093Z,92.10
2019-03-27T01:11:34.539Z,91.90
2019-03-27T01:14:02.986Z,91.90
2019-03-27T01:16:31.431Z,92.00
2019-03-27T01:18:59.871Z,92.00
2019-03-27T01:21:28.310Z,91.90
2019-03-27T01:23:56.754Z,91.90
2019-03-27T01:26:25.183Z,91.90
2019-03-27T01:28:53.639Z,91.90
2019-03-27T01:31:22.075Z,91.90
2019-03-27T01:33:50.502Z,91.90
2019-03-27T01:36:18.956Z,92.00
2019-03-27T01:38:47.395Z,92.10
2019-03-27T01:41:15.834Z,92.00
2019-03-27T01:43:44.270Z,92.00
2019-03-27T01:46:12.729Z,92.10
2019-03-27T01:48:41.226Z,92.00
2019-03-27T01:51:09.690Z,92.00
2019-03-27T01:53:38.113Z,92.10
2019-03-27T01:56:06.547Z,92.00
2019-03-27T01:58:35.063Z,92.00
2019-03-27T02:01:04.659Z,92.00
2019-03-27T02:03:33.167Z,92.00
2019-03-27T02:06:01.615Z,92.00
2019-03-27T02:08:30.055Z,92.00
2019-03-27T02:10:58.501Z,92.00
2019-03-27T02:13:26.936Z,92.00
2019-03-27T02:16:06.352Z,92.00
2019-03-27T02:18:25.526Z,92.00
2019-03-27T02:20:53.966Z,92.00
2019-03-27T02:23:22.415Z,91.90
2019-03-27T02:25:50.889Z,92.00
2019-03-27T02:28:19.405Z,92.00
2019-03-27T02:30:47.838Z,92.00
2019-03-27T02:33:17.774Z,92.00
2019-03-27T02:35:46.194Z,91.90
2019-03-27T02:38:14.630Z,92.00
2019-03-27T02:40:43.078Z,91.90
2019-03-27T02:43:11.519Z,92.00
2019-03-27T02:45:39.982Z,91.90
2019-03-27T02:48:08.414Z,92.00
2019-03-27T02:50:36.843Z,92.00
2019-03-27T02:53:05.293Z,92.10
2019-03-27T02:55:33.816Z,92.10
2019-03-27T02:58:02.342Z,92.10
2019-03-27T03:00:30.850Z,92.30
2019-03-27T03:02:59.354Z,92.20
2019-03-27T03:05:27.796Z,92.30
2019-03-27T03:07:56.241Z,92.30
2019-03-27T03:10:24.683Z,92.30
2019-03-27T03:12:59.083Z,92.20
2019-03-27T03:15:27.527Z,92.30
2019-03-27T03:17:55.956Z,92.30
2019-03-27T03:20:24.413Z,92.30
2019-03-27T03:22:54.391Z,92.30
2019-03-27T03:25:22.842Z,92.30
2019-03-27T03:27:51.274Z,92.40
2019-03-27T03:30:19.782Z,92.40
2019-03-27T03:32:48.234Z,92.40
2019-03-27T03:35:16.764Z,92.40
2019-03-27T03:37:45.273Z,92.30
2019-03-27T03:40:15.822Z,92.30
2019-03-27T03:42:44.323Z,92.30
2019-03-27T03:45:13.308Z,92.30
2019-03-27T03:47:43.286Z,92.30
2019-03-27T03:50:23.770Z,92.40
2019-03-27T03:52:52.271Z,92.30
2019-03-27T03:55:20.846Z,92.30
2019-03-27T03:57:49.526Z,92.30
2019-03-27T04:00:18.036Z,92.20
2019-03-27T04:02:47.084Z,92.20
2019-03-27T04:05:18.618Z,92.10
2019-03-27T04:07:47.050Z,92.10
2019-03-27T04:10:15.500Z,92.40
2019-03-27T04:12:43.938Z,92.30
2019-03-27T04:15:12.380Z,92.40
2019-03-27T04:17:43.309Z,92.40
2019-03-27T04:20:11.992Z,92.40
2019-03-27T04:22:40.419Z,92.30
2019-03-27T04:25:08.931Z,92.40
2019-03-27T04:27:37.359Z,92.50
2019-03-27T04:30:07.405Z,92.50
2019-03-27T04:32:35.833Z,92.60
2019-03-27T04:35:06.385Z,92.60
2019-03-27T04:37:34.823Z,92.60
2019-03-27T04:40:04.900Z,92.50
2019-03-27T04:42:33.376Z,92.50
2019-03-27T04:45:01.947Z,92.50
2019-03-27T04:47:32.377Z,92.50
2019-03-27T04:50:00.556Z,92.50
2019-03-27T04:52:29.002Z,92.50
2019-03-27T04:54:57.451Z,92.50
2019-03-27T04:57:25.891Z,92.60
2019-03-27T04:59:54.339Z,92.60
2019-03-27T05:02:24.414Z,92.60
2019-03-27T05:04:55.835Z,92.80
2019-03-27T05:07:24.334Z,92.70
2019-03-27T05:09:52.767Z,92.70
2019-03-27T05:12:21.211Z,92.70
2019-03-27T05:14:49.659Z,92.70
2019-03-27T05:17:18.100Z,92.70
2019-03-27T05:19:46.551Z,92.80
2019-03-27T05:22:23.514Z,92.80
2019-03-27T05:24:51.961Z,92.90
2019-03-27T05:27:20.415Z,92.80
2019-03-27T05:29:48.837Z,93.10
2019-03-27T05:32:19.382Z,93.20
2019-03-27T05:34:47.455Z,93.10
2019-03-27T05:37:15.891Z,93.10
2019-03-27T05:39:44.344Z,93.00
2019-03-27T05:42:12.784Z,93.10
2019-03-27T05:44:41.231Z,93.20
2019-03-27T05:47:09.692Z,93.20
2019-03-27T05:49:38.131Z,93.10
2019-03-27T05:52:06.583Z,93.20
2019-03-27T05:54:35.033Z,93.10
2019-03-27T05:57:03.483Z,93.30
2019-03-27T05:59:31.922Z,93.30
2019-03-27T06:02:00.356Z,93.30
2019-03-27T06:04:28.812Z,93.40
2019-03-27T06:06:57.247Z,93.60
2019-03-27T06:09:25.690Z,94.10
2019-03-27T06:11:54.131Z,94.40
2019-03-27T06:14:22.572Z,94.50
2019-03-27T06:16:51.007Z,94.40
2019-03-27T06:19:19.433Z,93.70
2019-03-27T06:21:47.875Z,92.80
2019-03-27T06:24:16.303Z,91.70
2019-03-27T06:26:44.737Z,90.80
2019-03-27T06:29:16.050Z,90.00
2019-03-27T06:31:44.680Z,89.20
2019-03-27T06:34:13.163Z,87.80
2019-03-27T06:36:41.594Z,86.60
2019-03-27T06:39:10.048Z,85.60
2019-03-27T06:41:38.486Z,83.60
2019-03-27T06:44:08.659Z,82.70
2019-03-27T06:46:37.087Z,81.60
2019-03-27T06:49:05.547Z,80.90
2019-03-27T06:51:40.356Z,79.60
2019-03-27T06:54:06.951Z,78.60
2019-03-27T06:56:35.382Z,76.00
2019-03-27T06:59:03.834Z,75.20
2019-03-27T07:01:32.270Z,74.40
2019-03-27T07:04:10.544Z,74.70
2019-03-27T07:06:30.866Z,74.30
2019-03-27T07:08:59.320Z,74.00
2019-03-27T07:11:27.750Z,74.10
2019-03-27T07:13:56.193Z,74.30
2019-03-27T07:16:24.650Z,74.00
2019-03-27T07:18:53.158Z,72.70
2019-03-27T07:21:21.618Z,72.40
2019-03-27T07:23:50.063Z,72.30
2019-03-27T07:26:18.500Z,72.40
2019-03-27T07:28:46.943Z,72.60
2019-03-27T07:31:15.385Z,71.60
2019-03-27T07:33:43.835Z,71.20
2019-03-27T07:36:12.273Z,71.70
2019-03-27T07:38:40.714Z,71.10
2019-03-27T07:41:10.680Z,70.90
2019-03-27T07:43:39.118Z,69.90
2019-03-27T07:46:07.559Z,69.50
2019-03-27T07:48:38.245Z,70.20
2019-03-27T07:51:06.167Z,70.40
2019-03-27T07:53:34.622Z,69.70
2019-03-27T07:56:03.068Z,68.90
2019-03-27T07:58:31.503Z,67.50
2019-03-27T08:00:59.962Z,68.00
2019-03-27T08:03:28.403Z,69.00
2019-03-27T08:05:56.861Z,69.40
2019-03-27T08:08:25.311Z,69.70
2019-03-27T08:10:53.742Z,68.60
2019-03-27T08:13:22.191Z,68.60
2019-03-27T08:15:50.649Z,67.90
2019-03-27T08:18:19.086Z,67.90
2019-03-27T08:20:47.513Z,67.40
2019-03-27T08:23:15.962Z,66.40
2019-03-27T08:25:44.425Z,66.60
2019-03-27T08:28:12.874Z,66.50
2019-03-27T08:30:41.314Z,67.50
2019-03-27T08:33:09.765Z,66.70
2019-03-27T08:35:38.206Z,67.10
2019-03-27T08:38:06.704Z,67.80
2019-03-27T08:40:35.163Z,69.20
2019-03-27T08:43:03.603Z,70.30
2019-03-27T08:45:32.052Z,68.30
2019-03-27T08:48:00.492Z,68.30
2019-03-27T08:50:28.934Z,67.30
2019-03-27T08:52:57.562Z,68.20
2019-03-27T08:55:26.032Z,67.90
2019-03-27T08:57:54.709Z,67.60
2019-03-27T09:00:43.074Z,66.80
2019-03-27T09:03:11.517Z,66.70
2019-03-27T09:05:39.961Z,66.20
2019-03-27T09:08:08.467Z,66.00
2019-03-27T09:10:36.977Z,65.20
2019-03-27T09:13:05.409Z,66.20
2019-03-27T09:15:33.868Z,65.70
2019-03-27T09:18:02.316Z,65.40
2019-03-27T09:20:30.753Z,65.70
2019-03-27T09:22:59.203Z,65.30
2019-03-27T09:25:27.724Z,65.70
2019-03-27T09:27:56.154Z,64.50
2019-03-27T09:30:24.988Z,64.50
2019-03-27T09:32:53.507Z,63.80
2019-03-27T09:35:21.967Z,63.10
2019-03-27T09:37:50.409Z,63.50
2019-03-27T09:40:18.916Z,63.40
2019-03-27T09:42:47.358Z,63.30
2019-03-27T09:45:16.138Z,63.50
2019-03-27T09:47:44.574Z,64.70
2019-03-27T09:50:13.346Z,63.60
2019-03-27T09:52:43.027Z,64.00
2019-03-27T09:55:11.770Z,63.70
2019-03-27T09:57:40.282Z,63.90
2019-03-27T10:00:09.762Z,63.70
2019-03-27T10:02:38.205Z,63.60
2019-03-27T10:05:10.840Z,63.30
2019-03-27T10:07:39.263Z,63.00
2019-03-27T10:10:07.951Z,61.80
2019-03-27T10:12:36.402Z,62.70
2019-03-27T10:15:07.295Z,63.00
2019-03-27T10:17:35.733Z,62.30
2019-03-27T10:20:06.224Z,62.60
2019-03-27T10:22:34.656Z,62.70
2019-03-27T10:25:03.662Z,62.80
2019-03-27T10:27:32.107Z,62.40
2019-03-27T10:30:00.542Z,62.30
2019-03-27T10:32:28.981Z,62.40
2019-03-27T10:35:00.228Z,61.40
2019-03-27T10:37:28.990Z,61.60
2019-03-27T10:39:57.436Z,61.40
2019-03-27T10:42:25.871Z,61.00
2019-03-27T10:44:54.313Z,59.70
2019-03-27T10:47:22.751Z,58.80
2019-03-27T10:49:51.186Z,59.10
2019-03-27T10:52:19.630Z,58.10
2019-03-27T10:54:48.058Z,56.10
2019-03-27T10:57:16.495Z,56.20
2019-03-27T10:59:44.929Z,57.10
2019-03-27T11:02:13.383Z,55.70
2019-03-27T11:04:41.831Z,55.30
2019-03-27T11:07:10.341Z,55.00
2019-03-27T11:09:38.772Z,55.30
2019-03-27T11:12:07.211Z,55.40
2019-03-27T11:14:38.164Z,54.80
2019-03-27T11:17:05.808Z,55.00
2019-03-27T11:19:34.230Z,54.10
2019-03-27T11:22:02.711Z,54.90
2019-03-27T11:24:31.133Z,55.40
2019-03-27T11:26:59.594Z,55.70
2019-03-27T11:29:28.021Z,55.00
2019-03-27T11:31:56.468Z,55.60
2019-03-27T11:34:24.907Z,55.90
2019-03-27T11:36:53.337Z,56.40
2019-03-27T11:39:24.648Z,55.30
2019-03-27T11:41:51.950Z,56.40
2019-03-27T11:44:20.406Z,56.30
2019-03-27T11:46:48.834Z,56.80
2019-03-27T11:49:17.275Z,57.50
2019-03-27T11:51:45.715Z,57.10
2019-03-27T11:54:14.150Z,57.00
2019-03-27T11:56:42.615Z,57.70
2019-03-27T11:59:11.043Z,58.10
2019-03-27T12:01:43.478Z,58.40
2019-03-27T12:04:09.688Z,57.50
2019-03-27T12:06:38.128Z,56.60
2019-03-27T12:09:07.544Z,56.90
2019-03-27T12:11:36.147Z,57.20
2019-03-27T12:14:04.832Z,57.70
2019-03-27T12:16:33.270Z,57.30
2019-03-27T12:19:01.712Z,57.40
2019-03-27T12:21:30.147Z,57.60
2019-03-27T12:23:58.608Z,57.80
2019-03-27T12:26:27.051Z,58.00
2019-03-27T12:28:55.499Z,58.40
2019-03-27T12:31:25.891Z,58.50
2019-03-27T12:33:55.587Z,58.30
2019-03-27T12:36:24.030Z,58.70
2019-03-27T12:38:52.466Z,58.90
2019-03-27T12:41:20.990Z,58.70
2019-03-27T12:43:55.962Z,58.80
2019-03-27T12:46:25.222Z,59.10
2019-03-27T12:48:53.675Z,58.10
2019-03-27T12:51:22.201Z,58.20
2019-03-27T12:53:50.657Z,58.60
2019-03-27T12:56:19.166Z,59.00
2019-03-27T12:58:47.630Z,59.30
2019-03-27T13:01:16.079Z,59.30
2019-03-27T13:03:44.767Z,58.90
2019-03-27T13:06:14.201Z,59.20
2019-03-27T13:08:42.687Z,59.30
2019-03-27T13:11:11.129Z,59.40
2019-03-27T13:13:39.594Z,59.70
2019-03-27T13:16:08.055Z,59.20
2019-03-27T13:18:36.494Z,59.10
2019-03-27T13:21:04.943Z,59.20
2019-03-27T13:23:33.399Z,58.90
2019-03-27T13:26:01.852Z,58.60
2019-03-27T13:28:30.300Z,59.00
2019-03-27T13:30:58.730Z,59.10
2019-03-27T13:33:27.268Z,59.30
2019-03-27T13:35:55.717Z,59.60
2019-03-27T13:38:24.171Z,60.70
2019-03-27T13:40:52.616Z,60.50
2019-03-27T13:43:21.064Z,60.60
2019-03-27T13:45:49.516Z,61.40
2019-03-27T13:48:17.962Z,61.50
2019-03-27T13:50:46.419Z,61.60
2019-03-27T13:53:14.867Z,61.40
2019-03-27T13:55:43.339Z,61.80
2019-03-27T13:58:11.778Z,61.60
2019-03-27T14:00:40.215Z,61.90
2019-03-27T14:03:14.211Z,62.30
2019-03-27T14:05:42.638Z,61.80
2019-03-27T14:08:11.087Z,62.20
2019-03-27T14:10:41.092Z,62.50
2019-03-27T14:13:11.492Z,63.10
2019-03-27T14:15:39.726Z,63.10
2019-03-27T14:18:08.167Z,63.20
2019-03-27T14:20:36.626Z,63.30
2019-03-27T14:23:05.194Z,63.60
2019-03-27T14:25:33.655Z,64.10
2019-03-27T14:28:02.098Z,64.70
2019-03-27T14:30:50.493Z,64.80
2019-03-27T14:33:19.697Z,64.70
2019-03-27T14:35:48.134Z,64.40
2019-03-27T14:38:16.578Z,64.90
2019-03-27T14:40:45.011Z,64.60
2019-03-27T14:43:13.451Z,64.70
2019-03-27T14:45:41.904Z,64.60
2019-03-27T14:48:10.334Z,64.90
2019-03-27T14:50:38.772Z,65.00
2019-03-27T14:53:07.226Z,64.90
2019-03-27T14:55:36.682Z,64.60
2019-03-27T14:58:05.135Z,63.80
2019-03-27T15:00:33.576Z,63.90
2019-03-27T15:03:02.023Z,64.50
2019-03-27T15:05:30.451Z,64.10
2019-03-27T15:07:59.389Z,64.40
2019-03-27T15:10:28.814Z,64.50
2019-03-27T15:12:57.258Z,64.70
2019-03-27T15:15:25.690Z,64.50
2019-03-27T15:17:54.134Z,64.50
2019-03-27T15:20:22.754Z,64.60
2019-03-27T15:22:51.184Z,64.80
2019-03-27T15:25:21.176Z,64.60
2019-03-27T15:27:52.265Z,64.40
2019-03-27T15:30:23.306Z,64.40
2019-03-27T15:32:51.753Z,64.30
2019-03-27T15:35:20.213Z,64.60
2019-03-27T15:37:48.725Z,64.40
2019-03-27T15:40:20.241Z,64.50
2019-03-27T15:42:51.802Z,64.80
2019-03-27T15:45:20.435Z,65.00
2019-03-27T15:47:48.933Z,65.20
2019-03-27T15:50:17.473Z,65.70
2019-03-27T15:52:45.920Z,65.90
2019-03-27T15:55:14.503Z,66.10
2019-03-27T15:57:42.943Z,66.00
2019-03-27T16:00:12.606Z,66.40
2019-03-27T16:02:41.277Z,66.20
2019-03-27T16:05:09.789Z,66.30
2019-03-27T16:07:38.226Z,66.80
2019-03-27T16:10:07.309Z,67.10
2019-03-27T16:12:36.450Z,67.10
2019-03-27T16:15:09.521Z,67.00
2019-03-27T16:17:38.228Z,67.10
2019-03-27T16:20:07.501Z,67.00
2019-03-27T16:22:49.510Z,67.20
2019-03-27T16:25:08.094Z,67.30
2019-03-27T16:27:36.609Z,67.50
2019-03-27T16:30:08.177Z,67.70
2019-03-27T16:32:36.625Z,67.30
2019-03-27T16:35:07.411Z,67.50
2019-03-27T16:37:35.851Z,67.60
2019-03-27T16:40:06.330Z,67.70
2019-03-27T16:42:34.847Z,67.80
2019-03-27T16:45:05.037Z,68.00
2019-03-27T16:47:33.472Z,68.00
2019-03-27T16:50:02.811Z,68.20
2019-03-27T16:52:31.249Z,68.00
2019-03-27T16:54:59.763Z,68.20
2019-03-27T16:57:28.192Z,68.10
2019-03-27T16:59:56.629Z,68.30
2019-03-27T17:02:25.070Z,68.40
2019-03-27T17:04:53.503Z,68.50
2019-03-27T17:07:21.950Z,68.40
2019-03-27T17:09:50.423Z,68.70
2019-03-27T17:12:18.862Z,69.00
2019-03-27T17:14:47.391Z,69.00
2019-03-27T17:17:15.822Z,69.40
2019-03-27T17:19:44.258Z,69.70
2019-03-27T17:22:19.286Z,70.00
2019-03-27T17:24:43.816Z,70.10
2019-03-27T17:27:12.256Z,69.60
2019-03-27T17:29:40.713Z,70.60
2019-03-27T17:32:09.138Z,70.70
2019-03-27T17:34:37.650Z,71.50
2019-03-27T17:37:06.086Z,71.20
2019-03-27T17:39:34.528Z,71.40
2019-03-27T17:42:02.979Z,71.70
2019-03-27T17:44:31.418Z,72.30
2019-03-27T17:46:59.865Z,72.10
2019-03-27T17:49:28.298Z,72.20
2019-03-27T17:51:56.747Z,72.30
2019-03-27T17:54:25.178Z,72.40
2019-03-27T17:56:53.616Z,72.50
2019-03-27T17:59:24.716Z,72.80
2019-03-27T18:01:53.156Z,73.10
2019-03-27T18:04:21.603Z,73.20
2019-03-27T18:06:50.088Z,73.50
2019-03-27T18:09:18.540Z,73.80
2019-03-27T18:11:46.977Z,74.20
2019-03-27T18:14:15.425Z,74.20
2019-03-27T18:16:43.854Z,74.50
2019-03-27T18:19:12.296Z,74.70
2019-03-27T18:21:40.746Z,75.00
2019-03-27T18:24:09.170Z,75.30
2019-03-27T18:26:37.615Z,75.50
2019-03-27T18:29:06.065Z,76.40
2019-03-27T18:31:34.503Z,75.80
2019-03-27T18:34:03.243Z,76.00
2019-03-27T18:36:31.699Z,76.20
2019-03-27T18:39:00.144Z,76.40
2019-03-27T18:41:28.583Z,76.60
2019-03-27T18:43:57.339Z,76.90
2019-03-27T18:46:25.769Z,77.00
2019-03-27T18:48:55.002Z,77.20
2019-03-27T18:51:24.386Z,77.40
2019-03-27T18:53:59.554Z,77.60
2019-03-27T18:56:23.081Z,77.80
2019-03-27T18:58:51.521Z,77.90
2019-03-27T19:01:19.979Z,78.10
2019-03-27T19:03:48.490Z,78.20
2019-03-27T19:06:16.935Z,78.40
2019-03-27T19:08:45.386Z,78.60
2019-03-27T19:11:13.899Z,79.50
2019-03-27T19:13:42.352Z,78.90
2019-03-27T19:16:10.865Z,79.20
2019-03-27T19:18:39.334Z,79.20
2019-03-27T19:21:07.830Z,79.60
2019-03-27T19:23:36.264Z,79.50
2019-03-27T19:26:08.345Z,80.00
2019-03-27T19:28:36.795Z,79.90
2019-03-27T19:31:07.192Z,80.10
2019-03-27T19:33:40.581Z,80.40
2019-03-27T19:36:09.358Z,80.40
2019-03-27T19:38:37.809Z,80.50
2019-03-27T19:41:06.328Z,80.80
2019-03-27T19:43:34.765Z,80.90
2019-03-27T19:46:03.275Z,81.20
2019-03-27T19:48:31.819Z,81.30
2019-03-27T19:51:00.719Z,81.50
2019-03-27T19:53:29.160Z,81.70
2019-03-27T19:55:57.625Z,81.90
2019-03-27T19:58:26.101Z,82.10
2019-03-27T20:00:54.548Z,82.20
2019-03-27T20:03:22.988Z,82.30
2019-03-27T20:05:53.592Z,82.70
2019-03-27T20:08:22.029Z,82.60
2019-03-27T20:10:50.543Z,82.70
2019-03-27T20:13:19.079Z,82.80
2019-03-27T20:15:47.499Z,83.00
2019-03-27T20:18:15.952Z,83.10
2019-03-27T20:20:44.388Z,83.50
2019-03-27T20:23:15.626Z,83.40
2019-03-27T20:25:44.163Z,83.70
2019-03-27T20:28:12.611Z,83.80
2019-03-27T20:30:41.055Z,84.30
2019-03-27T20:33:09.508Z,84.20
2019-03-27T20:35:37.938Z,84.50
2019-03-27T20:38:08.271Z,84.90
2019-03-27T20:40:36.774Z,85.00
2019-03-27T20:43:05.230Z,85.10
2019-03-27T20:45:33.735Z,85.30
2019-03-27T20:48:02.259Z,85.60
2019-03-27T20:50:30.722Z,85.90
2019-03-27T20:52:59.166Z,86.20
2019-03-27T20:55:30.628Z,86.70
2019-03-27T20:57:59.043Z,86.40
2019-03-27T21:00:27.478Z,87.00
2019-03-27T21:02:57.418Z,87.00
2019-03-27T21:05:27.233Z,87.50
2019-03-27T21:07:55.684Z,87.40
2019-03-27T21:10:28.521Z,87.00
2019-03-27T21:12:56.976Z,87.70
2019-03-27T21:15:25.429Z,87.50
2019-03-27T21:17:53.883Z,87.60
2019-03-27T21:20:22.319Z,87.70
2019-03-27T21:22:50.758Z,87.70
2019-03-27T21:25:19.198Z,87.90
2019-03-27T21:27:49.917Z,88.20
2019-03-27T21:30:18.107Z,88.50
2019-03-27T21:32:46.596Z,88.50
2019-03-27T21:35:16.676Z,88.20
2019-03-27T21:38:04.795Z,88.40
2019-03-27T21:40:33.365Z,88.70
2019-03-27T21:43:02.029Z,88.50
2019-03-27T21:45:32.356Z,88.70
2019-03-27T21:48:01.199Z,88.50
2019-03-27T21:50:30.008Z,88.90
2019-03-27T21:53:00.960Z,88.70
2019-03-27T21:55:41.883Z,88.80
2019-03-27T21:57:59.032Z,88.80
2019-03-27T22:00:38.242Z,88.90
2019-03-27T22:03:07.279Z,88.80
2019-03-27T22:05:35.841Z,89.00
2019-03-27T22:08:04.674Z,88.90
2019-03-27T22:10:33.761Z,88.90
2019-03-27T22:13:02.315Z,88.90
2019-03-27T22:15:30.894Z,89.00
2019-03-27T22:18:02.477Z,89.50
2019-03-27T22:20:31.028Z,89.30
2019-03-27T22:22:59.608Z,89.60
2019-03-27T22:25:35.802Z,89.60
2019-03-27T22:27:58.381Z,89.80
2019-03-27T22:30:26.965Z,89.80
2019-03-27T22:32:55.528Z,90.10
2019-03-27T22:35:24.099Z,90.10
2019-03-27T22:37:52.672Z,90.00
2019-03-27T22:40:21.271Z,90.00
2019-03-27T22:42:49.814Z,90.00
2019-03-27T22:45:18.377Z,90.00
2019-03-27T22:47:46.973Z,90.00
2019-03-27T22:50:15.496Z,90.00
2019-03-27T22:52:44.074Z,90.00
2019-03-27T22:55:12.716Z,90.10
2019-03-27T22:57:41.297Z,90.20
2019-03-27T23:00:13.712Z,90.10
2019-03-27T23:02:42.407Z,90.10
2019-03-27T23:05:15.182Z,90.20
2019-03-27T23:07:41.345Z,90.10
2019-03-27T23:10:10.174Z,90.30
2019-03-27T23:12:41.656Z,90.30
2019-03-27T23:15:10.653Z,90.20
2019-03-27T23:17:39.213Z,90.40
2019-03-27T23:20:08.220Z,90.30
2019-03-27T23:22:39.355Z,90.30
2019-03-27T23:25:08.577Z,90.40
2019-03-27T23:27:37.189Z,90.30
2019-03-27T23:30:07.837Z,90.40
2019-03-27T23:32:36.673Z,90.50
2019-03-27T23:35:07.721Z,90.60
2019-03-27T23:37:36.283Z,90.40
2019-03-27T23:40:06.585Z,90.40
2019-03-27T23:42:35.141Z,90.50
2019-03-27T23:45:05.257Z,90.50
2019-03-27T23:47:33.821Z,90.50
2019-03-27T23:50:02.417Z,90.50
2019-03-27T23:52:30.970Z,90.50
2019-03-27T23:54:59.547Z,90.60
2019-03-27T23:57:28.103Z,90.70
2019-03-27T23:59:56.684Z,90.70
